sensor_id;sensor_type;location;lat;lon;timestamp;P1;durP1;ratioP1;P2;durP2;ratioP2
55732;SDS011;41637;52.364;9.910;2023-05-20T00:01:54;5.80;;;2.20;;
55732;SDS011;41637;52.364;9.910;2023-05-20T00:04:20;3.50;;;1.80;;
55732;SDS011;41637;52.364;9.910;2023-05-20T00:06:47;3.70;;;2.00;;
55732;SDS011;41637;52.364;9.910;2023-05-20T00:09:14;3.70;;;1.90;;
55732;SDS011;41637;52.364;9.910;2023-05-20T00:11:42;3.70;;;2.00;;
55732;SDS011;41637;52.364;9.910;2023-05-20T00:14:09;3.40;;;1.80;;
55732;SDS011;41637;52.364;9.910;2023-05-20T00:16:36;4.20;;;2.10;;
55732;SDS011;41637;52.364;9.910;2023-05-20T00:19:02;4.30;;;2.20;;
55732;SDS011;41637;52.364;9.910;2023-05-20T00:21:29;3.30;;;2.00;;
55732;SDS011;41637;52.364;9.910;2023-05-20T00:23:56;3.90;;;1.90;;
55732;SDS011;41637;52.364;9.910;2023-05-20T00:26:23;3.40;;;1.80;;
55732;SDS011;41637;52.364;9.910;2023-05-20T00:28:50;3.80;;;2.10;;
55732;SDS011;41637;52.364;9.910;2023-05-20T00:31:18;4.10;;;1.90;;
55732;SDS011;41637;52.364;9.910;2023-05-20T00:33:47;3.00;;;1.70;;
55732;SDS011;41637;52.364;9.910;2023-05-20T00:36:13;3.00;;;1.60;;
55732;SDS011;41637;52.364;9.910;2023-05-20T00:38:41;2.50;;;1.50;;
55732;SDS011;41637;52.364;9.910;2023-05-20T00:41:08;3.40;;;1.70;;
55732;SDS011;41637;52.364;9.910;2023-05-20T00:43:35;4.60;;;1.90;;
55732;SDS011;41637;52.364;9.910;2023-05-20T00:46:02;4.20;;;1.60;;
55732;SDS011;41637;52.364;9.910;2023-05-20T00:48:30;3.80;;;1.80;;
55732;SDS011;41637;52.364;9.910;2023-05-20T00:51:04;2.70;;;1.60;;
55732;SDS011;41637;52.364;9.910;2023-05-20T00:53:33;5.00;;;1.70;;
55732;SDS011;41637;52.364;9.910;2023-05-20T00:56:02;2.40;;;1.50;;
55732;SDS011;41637;52.364;9.910;2023-05-20T00:58:30;2.70;;;1.50;;
55732;SDS011;41637;52.364;9.910;2023-05-20T01:00:57;3.80;;;1.60;;
55732;SDS011;41637;52.364;9.910;2023-05-20T01:03:24;3.10;;;1.70;;
55732;SDS011;41637;52.364;9.910;2023-05-20T01:05:52;2.50;;;1.40;;
55732;SDS011;41637;52.364;9.910;2023-05-20T01:08:23;4.60;;;1.60;;
55732;SDS011;41637;52.364;9.910;2023-05-20T01:11:02;4.90;;;1.70;;
55732;SDS011;41637;52.364;9.910;2023-05-20T01:13:42;4.60;;;1.50;;
55732;SDS011;41637;52.364;9.910;2023-05-20T01:16:12;2.80;;;1.40;;
55732;SDS011;41637;52.364;9.910;2023-05-20T01:18:43;4.80;;;1.30;;
55732;SDS011;41637;52.364;9.910;2023-05-20T01:21:13;4.70;;;1.50;;
55732;SDS011;41637;52.364;9.910;2023-05-20T01:23:41;4.30;;;1.50;;
55732;SDS011;41637;52.364;9.910;2023-05-20T01:26:08;2.50;;;1.30;;
55732;SDS011;41637;52.364;9.910;2023-05-20T01:28:39;4.00;;;1.60;;
55732;SDS011;41637;52.364;9.910;2023-05-20T01:31:19;2.80;;;1.30;;
55732;SDS011;41637;52.364;9.910;2023-05-20T01:33:51;2.60;;;1.40;;
55732;SDS011;41637;52.364;9.910;2023-05-20T01:36:21;3.30;;;1.50;;
55732;SDS011;41637;52.364;9.910;2023-05-20T01:38:48;4.00;;;1.50;;
55732;SDS011;41637;52.364;9.910;2023-05-20T01:41:16;2.70;;;1.20;;
55732;SDS011;41637;52.364;9.910;2023-05-20T01:43:44;2.90;;;1.30;;
55732;SDS011;41637;52.364;9.910;2023-05-20T01:46:10;4.90;;;1.30;;
55732;SDS011;41637;52.364;9.910;2023-05-20T01:48:37;4.00;;;1.30;;
55732;SDS011;41637;52.364;9.910;2023-05-20T01:51:04;2.50;;;1.40;;
55732;SDS011;41637;52.364;9.910;2023-05-20T01:53:31;3.20;;;1.40;;
55732;SDS011;41637;52.364;9.910;2023-05-20T01:55:57;2.40;;;1.50;;
55732;SDS011;41637;52.364;9.910;2023-05-20T01:58:24;3.90;;;1.40;;
55732;SDS011;41637;52.364;9.910;2023-05-20T02:00:51;3.20;;;1.50;;
55732;SDS011;41637;52.364;9.910;2023-05-20T02:03:18;3.70;;;1.50;;
55732;SDS011;41637;52.364;9.910;2023-05-20T02:05:45;3.70;;;1.70;;
55732;SDS011;41637;52.364;9.910;2023-05-20T02:08:12;4.50;;;1.50;;
55732;SDS011;41637;52.364;9.910;2023-05-20T02:10:39;2.90;;;1.40;;
55732;SDS011;41637;52.364;9.910;2023-05-20T02:13:06;3.50;;;1.60;;
55732;SDS011;41637;52.364;9.910;2023-05-20T02:15:33;4.60;;;1.30;;
55732;SDS011;41637;52.364;9.910;2023-05-20T02:18:00;3.70;;;1.40;;
55732;SDS011;41637;52.364;9.910;2023-05-20T02:20:27;5.80;;;1.60;;
55732;SDS011;41637;52.364;9.910;2023-05-20T02:22:54;5.30;;;1.70;;
55732;SDS011;41637;52.364;9.910;2023-05-20T02:25:21;5.30;;;1.80;;
55732;SDS011;41637;52.364;9.910;2023-05-20T02:27:48;4.20;;;1.50;;
55732;SDS011;41637;52.364;9.910;2023-05-20T02:30:15;3.30;;;1.40;;
55732;SDS011;41637;52.364;9.910;2023-05-20T02:32:42;4.90;;;1.60;;
55732;SDS011;41637;52.364;9.910;2023-05-20T02:35:09;3.20;;;1.50;;
55732;SDS011;41637;52.364;9.910;2023-05-20T02:37:35;5.70;;;1.60;;
55732;SDS011;41637;52.364;9.910;2023-05-20T02:40:04;2.90;;;1.50;;
55732;SDS011;41637;52.364;9.910;2023-05-20T02:42:34;3.50;;;1.40;;
55732;SDS011;41637;52.364;9.910;2023-05-20T02:45:00;2.80;;;1.50;;
55732;SDS011;41637;52.364;9.910;2023-05-20T02:47:27;3.00;;;1.40;;
55732;SDS011;41637;52.364;9.910;2023-05-20T02:49:54;5.30;;;1.60;;
55732;SDS011;41637;52.364;9.910;2023-05-20T02:52:21;3.10;;;1.40;;
55732;SDS011;41637;52.364;9.910;2023-05-20T02:54:48;4.60;;;1.70;;
55732;SDS011;41637;52.364;9.910;2023-05-20T02:57:15;2.80;;;1.60;;
55732;SDS011;41637;52.364;9.910;2023-05-20T02:59:42;2.60;;;1.70;;
55732;SDS011;41637;52.364;9.910;2023-05-20T03:02:08;4.10;;;1.60;;
55732;SDS011;41637;52.364;9.910;2023-05-20T03:04:35;4.80;;;1.50;;
55732;SDS011;41637;52.364;9.910;2023-05-20T03:07:04;3.30;;;1.70;;
55732;SDS011;41637;52.364;9.910;2023-05-20T03:09:32;4.20;;;1.50;;
55732;SDS011;41637;52.364;9.910;2023-05-20T03:11:59;3.30;;;1.50;;
55732;SDS011;41637;52.364;9.910;2023-05-20T03:14:26;3.10;;;1.60;;
55732;SDS011;41637;52.364;9.910;2023-05-20T03:16:53;2.70;;;1.70;;
55732;SDS011;41637;52.364;9.910;2023-05-20T03:19:23;3.20;;;1.50;;
55732;SDS011;41637;52.364;9.910;2023-05-20T03:21:50;3.50;;;1.50;;
55732;SDS011;41637;52.364;9.910;2023-05-20T03:24:16;3.40;;;1.50;;
55732;SDS011;41637;52.364;9.910;2023-05-20T03:26:43;3.40;;;1.30;;
55732;SDS011;41637;52.364;9.910;2023-05-20T03:29:11;4.10;;;1.50;;
55732;SDS011;41637;52.364;9.910;2023-05-20T03:31:38;3.60;;;1.50;;
55732;SDS011;41637;52.364;9.910;2023-05-20T03:34:06;3.50;;;1.70;;
55732;SDS011;41637;52.364;9.910;2023-05-20T03:36:33;2.80;;;1.50;;
55732;SDS011;41637;52.364;9.910;2023-05-20T03:39:00;3.80;;;1.70;;
55732;SDS011;41637;52.364;9.910;2023-05-20T03:41:27;4.10;;;1.50;;
55732;SDS011;41637;52.364;9.910;2023-05-20T03:43:53;3.80;;;1.30;;
55732;SDS011;41637;52.364;9.910;2023-05-20T03:46:20;4.20;;;1.40;;
55732;SDS011;41637;52.364;9.910;2023-05-20T03:48:47;3.10;;;1.50;;
55732;SDS011;41637;52.364;9.910;2023-05-20T03:51:13;4.30;;;1.60;;
55732;SDS011;41637;52.364;9.910;2023-05-20T03:53:41;2.70;;;1.60;;
55732;SDS011;41637;52.364;9.910;2023-05-20T03:56:07;3.00;;;1.60;;
55732;SDS011;41637;52.364;9.910;2023-05-20T03:58:34;3.40;;;1.70;;
55732;SDS011;41637;52.364;9.910;2023-05-20T04:01:03;4.30;;;1.60;;
55732;SDS011;41637;52.364;9.910;2023-05-20T04:03:31;2.80;;;1.50;;
55732;SDS011;41637;52.364;9.910;2023-05-20T04:05:58;4.70;;;1.50;;
55732;SDS011;41637;52.364;9.910;2023-05-20T04:08:25;3.10;;;1.60;;
55732;SDS011;41637;52.364;9.910;2023-05-20T04:10:55;3.40;;;1.50;;
55732;SDS011;41637;52.364;9.910;2023-05-20T04:13:23;5.50;;;1.70;;
55732;SDS011;41637;52.364;9.910;2023-05-20T04:15:51;3.10;;;1.40;;
55732;SDS011;41637;52.364;9.910;2023-05-20T04:18:18;4.20;;;1.70;;
55732;SDS011;41637;52.364;9.910;2023-05-20T04:20:46;4.00;;;1.50;;
55732;SDS011;41637;52.364;9.910;2023-05-20T04:23:13;3.30;;;1.70;;
55732;SDS011;41637;52.364;9.910;2023-05-20T04:25:39;2.80;;;1.60;;
55732;SDS011;41637;52.364;9.910;2023-05-20T04:28:07;2.80;;;1.60;;
55732;SDS011;41637;52.364;9.910;2023-05-20T04:30:35;4.70;;;1.80;;
55732;SDS011;41637;52.364;9.910;2023-05-20T04:33:02;3.80;;;1.50;;
55732;SDS011;41637;52.364;9.910;2023-05-20T04:35:29;3.40;;;1.50;;
55732;SDS011;41637;52.364;9.910;2023-05-20T04:37:57;3.00;;;1.40;;
55732;SDS011;41637;52.364;9.910;2023-05-20T04:40:23;2.20;;;1.40;;
55732;SDS011;41637;52.364;9.910;2023-05-20T04:42:50;3.60;;;1.60;;
55732;SDS011;41637;52.364;9.910;2023-05-20T04:45:18;2.80;;;1.80;;
55732;SDS011;41637;52.364;9.910;2023-05-20T04:47:45;2.60;;;1.50;;
55732;SDS011;41637;52.364;9.910;2023-05-20T04:50:12;4.20;;;1.70;;
55732;SDS011;41637;52.364;9.910;2023-05-20T04:52:40;4.00;;;1.80;;
55732;SDS011;41637;52.364;9.910;2023-05-20T04:55:08;3.70;;;1.50;;
55732;SDS011;41637;52.364;9.910;2023-05-20T04:57:36;3.60;;;1.60;;
55732;SDS011;41637;52.364;9.910;2023-05-20T05:00:08;3.90;;;1.70;;
55732;SDS011;41637;52.364;9.910;2023-05-20T05:02:37;2.50;;;1.40;;
55732;SDS011;41637;52.364;9.910;2023-05-20T05:05:05;3.50;;;1.60;;
55732;SDS011;41637;52.364;9.910;2023-05-20T05:07:32;4.50;;;1.90;;
55732;SDS011;41637;52.364;9.910;2023-05-20T05:09:59;3.00;;;1.60;;
55732;SDS011;41637;52.364;9.910;2023-05-20T05:12:26;5.90;;;2.00;;
55732;SDS011;41637;52.364;9.910;2023-05-20T05:14:53;6.00;;;2.30;;
55732;SDS011;41637;52.364;9.910;2023-05-20T05:17:20;3.50;;;2.00;;
55732;SDS011;41637;52.364;9.910;2023-05-20T05:19:47;4.00;;;1.60;;
55732;SDS011;41637;52.364;9.910;2023-05-20T05:22:14;5.00;;;1.80;;
55732;SDS011;41637;52.364;9.910;2023-05-20T05:24:41;2.80;;;1.60;;
55732;SDS011;41637;52.364;9.910;2023-05-20T05:27:08;4.60;;;1.80;;
55732;SDS011;41637;52.364;9.910;2023-05-20T05:29:35;4.40;;;1.90;;
55732;SDS011;41637;52.364;9.910;2023-05-20T05:32:02;3.90;;;1.90;;
55732;SDS011;41637;52.364;9.910;2023-05-20T05:34:29;3.10;;;1.80;;
55732;SDS011;41637;52.364;9.910;2023-05-20T05:36:56;4.30;;;2.20;;
55732;SDS011;41637;52.364;9.910;2023-05-20T05:39:23;3.90;;;2.10;;
55732;SDS011;41637;52.364;9.910;2023-05-20T05:41:49;4.20;;;2.10;;
55732;SDS011;41637;52.364;9.910;2023-05-20T05:44:16;4.60;;;2.10;;
55732;SDS011;41637;52.364;9.910;2023-05-20T05:46:43;4.70;;;2.20;;
55732;SDS011;41637;52.364;9.910;2023-05-20T05:49:10;4.40;;;2.50;;
55732;SDS011;41637;52.364;9.910;2023-05-20T05:51:37;4.20;;;2.30;;
55732;SDS011;41637;52.364;9.910;2023-05-20T05:54:04;3.70;;;2.10;;
55732;SDS011;41637;52.364;9.910;2023-05-20T05:56:31;4.20;;;2.30;;
55732;SDS011;41637;52.364;9.910;2023-05-20T05:58:58;3.50;;;2.30;;
55732;SDS011;41637;52.364;9.910;2023-05-20T06:01:25;5.60;;;2.30;;
55732;SDS011;41637;52.364;9.910;2023-05-20T06:03:52;4.60;;;2.60;;
55732;SDS011;41637;52.364;9.910;2023-05-20T06:06:19;3.70;;;2.40;;
55732;SDS011;41637;52.364;9.910;2023-05-20T06:08:46;3.90;;;2.30;;
55732;SDS011;41637;52.364;9.910;2023-05-20T06:11:13;3.70;;;1.90;;
55732;SDS011;41637;52.364;9.910;2023-05-20T06:13:39;3.30;;;2.30;;
55732;SDS011;41637;52.364;9.910;2023-05-20T06:16:06;3.70;;;2.20;;
55732;SDS011;41637;52.364;9.910;2023-05-20T06:18:33;3.70;;;2.50;;
55732;SDS011;41637;52.364;9.910;2023-05-20T06:21:01;4.30;;;2.30;;
55732;SDS011;41637;52.364;9.910;2023-05-20T06:23:28;4.20;;;2.50;;
55732;SDS011;41637;52.364;9.910;2023-05-20T06:25:58;3.10;;;2.10;;
55732;SDS011;41637;52.364;9.910;2023-05-20T06:28:26;4.80;;;2.20;;
55732;SDS011;41637;52.364;9.910;2023-05-20T06:30:53;4.90;;;2.50;;
55732;SDS011;41637;52.364;9.910;2023-05-20T06:33:22;4.80;;;2.70;;
55732;SDS011;41637;52.364;9.910;2023-05-20T06:35:53;5.30;;;2.80;;
55732;SDS011;41637;52.364;9.910;2023-05-20T06:38:22;5.90;;;2.70;;
55732;SDS011;41637;52.364;9.910;2023-05-20T06:40:49;4.50;;;2.90;;
55732;SDS011;41637;52.364;9.910;2023-05-20T06:43:16;4.90;;;2.50;;
55732;SDS011;41637;52.364;9.910;2023-05-20T06:45:43;4.80;;;2.70;;
55732;SDS011;41637;52.364;9.910;2023-05-20T06:48:10;4.50;;;2.70;;
55732;SDS011;41637;52.364;9.910;2023-05-20T06:50:37;3.80;;;2.30;;
55732;SDS011;41637;52.364;9.910;2023-05-20T06:53:04;4.80;;;2.40;;
55732;SDS011;41637;52.364;9.910;2023-05-20T06:55:31;5.30;;;2.80;;
55732;SDS011;41637;52.364;9.910;2023-05-20T06:57:58;3.70;;;2.60;;
55732;SDS011;41637;52.364;9.910;2023-05-20T07:00:26;4.80;;;2.50;;
55732;SDS011;41637;52.364;9.910;2023-05-20T07:02:53;4.40;;;3.00;;
55732;SDS011;41637;52.364;9.910;2023-05-20T07:05:20;4.70;;;2.70;;
55732;SDS011;41637;52.364;9.910;2023-05-20T07:07:46;6.30;;;2.60;;
55732;SDS011;41637;52.364;9.910;2023-05-20T07:10:13;4.70;;;2.30;;
55732;SDS011;41637;52.364;9.910;2023-05-20T07:12:40;3.50;;;2.30;;
55732;SDS011;41637;52.364;9.910;2023-05-20T07:15:07;4.70;;;2.40;;
55732;SDS011;41637;52.364;9.910;2023-05-20T07:17:34;4.20;;;2.20;;
55732;SDS011;41637;52.364;9.910;2023-05-20T07:20:02;4.10;;;2.30;;
55732;SDS011;41637;52.364;9.910;2023-05-20T07:22:29;4.80;;;2.00;;
55732;SDS011;41637;52.364;9.910;2023-05-20T07:24:56;3.90;;;2.20;;
55732;SDS011;41637;52.364;9.910;2023-05-20T07:27:23;4.70;;;1.90;;
55732;SDS011;41637;52.364;9.910;2023-05-20T07:29:50;4.00;;;2.40;;
55732;SDS011;41637;52.364;9.910;2023-05-20T07:32:16;3.70;;;2.30;;
55732;SDS011;41637;52.364;9.910;2023-05-20T07:34:43;4.60;;;2.30;;
55732;SDS011;41637;52.364;9.910;2023-05-20T07:37:10;4.10;;;2.30;;
55732;SDS011;41637;52.364;9.910;2023-05-20T07:39:37;3.00;;;1.90;;
55732;SDS011;41637;52.364;9.910;2023-05-20T07:42:04;3.70;;;2.20;;
55732;SDS011;41637;52.364;9.910;2023-05-20T07:44:31;5.70;;;2.20;;
55732;SDS011;41637;52.364;9.910;2023-05-20T07:46:58;6.50;;;2.20;;
55732;SDS011;41637;52.364;9.910;2023-05-20T07:49:25;3.80;;;2.20;;
55732;SDS011;41637;52.364;9.910;2023-05-20T07:51:51;5.00;;;2.20;;
55732;SDS011;41637;52.364;9.910;2023-05-20T07:54:18;5.20;;;2.30;;
55732;SDS011;41637;52.364;9.910;2023-05-20T07:56:45;4.20;;;2.10;;
55732;SDS011;41637;52.364;9.910;2023-05-20T07:59:12;5.40;;;2.20;;
55732;SDS011;41637;52.364;9.910;2023-05-20T08:01:39;4.40;;;2.40;;
55732;SDS011;41637;52.364;9.910;2023-05-20T08:04:07;3.20;;;2.20;;
55732;SDS011;41637;52.364;9.910;2023-05-20T08:06:34;5.00;;;2.00;;
55732;SDS011;41637;52.364;9.910;2023-05-20T08:09:02;4.00;;;1.90;;
55732;SDS011;41637;52.364;9.910;2023-05-20T08:11:29;3.30;;;2.00;;
55732;SDS011;41637;52.364;9.910;2023-05-20T08:13:55;2.70;;;2.00;;
55732;SDS011;41637;52.364;9.910;2023-05-20T08:16:22;6.70;;;2.10;;
55732;SDS011;41637;52.364;9.910;2023-05-20T08:18:49;2.80;;;1.80;;
55732;SDS011;41637;52.364;9.910;2023-05-20T08:21:16;3.50;;;1.80;;
55732;SDS011;41637;52.364;9.910;2023-05-20T08:23:43;3.70;;;2.20;;
55732;SDS011;41637;52.364;9.910;2023-05-20T08:26:10;3.50;;;2.30;;
55732;SDS011;41637;52.364;9.910;2023-05-20T08:28:37;2.90;;;2.10;;
55732;SDS011;41637;52.364;9.910;2023-05-20T08:31:04;4.60;;;2.50;;
55732;SDS011;41637;52.364;9.910;2023-05-20T08:33:30;5.10;;;2.30;;
55732;SDS011;41637;52.364;9.910;2023-05-20T08:35:57;4.40;;;2.20;;
55732;SDS011;41637;52.364;9.910;2023-05-20T08:38:24;3.00;;;2.10;;
55732;SDS011;41637;52.364;9.910;2023-05-20T08:40:54;5.20;;;2.40;;
55732;SDS011;41637;52.364;9.910;2023-05-20T08:43:22;3.30;;;2.00;;
55732;SDS011;41637;52.364;9.910;2023-05-20T08:45:49;3.50;;;1.90;;
55732;SDS011;41637;52.364;9.910;2023-05-20T08:48:21;2.80;;;2.00;;
55732;SDS011;41637;52.364;9.910;2023-05-20T08:50:49;4.10;;;2.00;;
55732;SDS011;41637;52.364;9.910;2023-05-20T08:53:17;4.20;;;2.20;;
55732;SDS011;41637;52.364;9.910;2023-05-20T08:55:48;3.00;;;1.90;;
55732;SDS011;41637;52.364;9.910;2023-05-20T08:58:20;3.70;;;1.80;;
55732;SDS011;41637;52.364;9.910;2023-05-20T09:00:49;3.90;;;1.90;;
55732;SDS011;41637;52.364;9.910;2023-05-20T09:03:16;3.50;;;2.00;;
55732;SDS011;41637;52.364;9.910;2023-05-20T09:05:43;4.20;;;1.90;;
55732;SDS011;41637;52.364;9.910;2023-05-20T09:08:10;3.50;;;1.90;;
55732;SDS011;41637;52.364;9.910;2023-05-20T09:10:38;4.00;;;2.10;;
55732;SDS011;41637;52.364;9.910;2023-05-20T09:13:06;3.80;;;1.80;;
55732;SDS011;41637;52.364;9.910;2023-05-20T09:15:35;2.50;;;1.60;;
55732;SDS011;41637;52.364;9.910;2023-05-20T09:18:03;2.70;;;1.90;;
55732;SDS011;41637;52.364;9.910;2023-05-20T09:20:33;3.40;;;1.80;;
55732;SDS011;41637;52.364;9.910;2023-05-20T09:23:05;3.10;;;1.80;;
55732;SDS011;41637;52.364;9.910;2023-05-20T09:25:34;2.30;;;1.40;;
55732;SDS011;41637;52.364;9.910;2023-05-20T09:28:06;3.60;;;1.80;;
55732;SDS011;41637;52.364;9.910;2023-05-20T09:30:33;2.60;;;1.40;;
55732;SDS011;41637;52.364;9.910;2023-05-20T09:33:02;3.30;;;1.50;;
55732;SDS011;41637;52.364;9.910;2023-05-20T09:35:33;2.90;;;1.40;;
55732;SDS011;41637;52.364;9.910;2023-05-20T09:38:02;3.50;;;1.80;;
55732;SDS011;41637;52.364;9.910;2023-05-20T09:40:31;2.90;;;1.40;;
55732;SDS011;41637;52.364;9.910;2023-05-20T09:43:00;5.10;;;2.00;;
55732;SDS011;41637;52.364;9.910;2023-05-20T09:45:29;3.30;;;1.80;;
55732;SDS011;41637;52.364;9.910;2023-05-20T09:47:56;4.10;;;1.90;;
55732;SDS011;41637;52.364;9.910;2023-05-20T09:50:23;3.30;;;1.50;;
55732;SDS011;41637;52.364;9.910;2023-05-20T09:52:51;2.90;;;1.50;;
55732;SDS011;41637;52.364;9.910;2023-05-20T09:55:20;3.20;;;1.60;;
55732;SDS011;41637;52.364;9.910;2023-05-20T09:57:48;3.40;;;1.60;;
55732;SDS011;41637;52.364;9.910;2023-05-20T10:00:15;2.60;;;1.60;;
55732;SDS011;41637;52.364;9.910;2023-05-20T10:02:43;3.20;;;1.70;;
55732;SDS011;41637;52.364;9.910;2023-05-20T10:05:21;3.50;;;1.70;;
55732;SDS011;41637;52.364;9.910;2023-05-20T10:13:44;3.60;;;1.70;;
55732;SDS011;41637;52.364;9.910;2023-05-20T10:16:27;3.40;;;1.60;;
55732;SDS011;41637;52.364;9.910;2023-05-20T10:19:30;3.40;;;1.90;;
55732;SDS011;41637;52.364;9.910;2023-05-20T10:21:59;3.30;;;1.60;;
55732;SDS011;41637;52.364;9.910;2023-05-20T10:24:31;3.90;;;1.60;;
55732;SDS011;41637;52.364;9.910;2023-05-20T10:27:03;2.60;;;1.60;;
55732;SDS011;41637;52.364;9.910;2023-05-20T10:32:26;3.10;;;2.00;;
55732;SDS011;41637;52.364;9.910;2023-05-20T10:34:58;2.60;;;1.60;;
55732;SDS011;41637;52.364;9.910;2023-05-20T10:37:27;4.10;;;2.00;;
55732;SDS011;41637;52.364;9.910;2023-05-20T10:42:32;3.20;;;2.10;;
55732;SDS011;41637;52.364;9.910;2023-05-20T10:44:59;3.50;;;2.00;;
55732;SDS011;41637;52.364;9.910;2023-05-20T10:47:25;5.10;;;2.50;;
55732;SDS011;41637;52.364;9.910;2023-05-20T10:49:52;4.10;;;2.20;;
55732;SDS011;41637;52.364;9.910;2023-05-20T10:52:19;3.50;;;1.90;;
55732;SDS011;41637;52.364;9.910;2023-05-20T10:54:47;3.40;;;1.70;;
55732;SDS011;41637;52.364;9.910;2023-05-20T10:57:21;3.20;;;1.80;;
55732;SDS011;41637;52.364;9.910;2023-05-20T10:59:49;3.30;;;2.20;;
55732;SDS011;41637;52.364;9.910;2023-05-20T11:02:16;5.30;;;1.60;;
55732;SDS011;41637;52.364;9.910;2023-05-20T11:04:45;4.10;;;2.00;;
55732;SDS011;41637;52.364;9.910;2023-05-20T11:07:12;2.90;;;1.90;;
55732;SDS011;41637;52.364;9.910;2023-05-20T11:09:38;3.70;;;2.40;;
55732;SDS011;41637;52.364;9.910;2023-05-20T11:12:15;3.70;;;2.30;;
55732;SDS011;41637;52.364;9.910;2023-05-20T11:14:42;3.10;;;2.00;;
55732;SDS011;41637;52.364;9.910;2023-05-20T11:17:09;3.50;;;1.90;;
55732;SDS011;41637;52.364;9.910;2023-05-20T11:19:36;4.10;;;2.20;;
55732;SDS011;41637;52.364;9.910;2023-05-20T11:22:05;4.00;;;2.30;;
55732;SDS011;41637;52.364;9.910;2023-05-20T11:24:33;4.00;;;2.50;;
55732;SDS011;41637;52.364;9.910;2023-05-20T11:27:00;3.60;;;2.10;;
55732;SDS011;41637;52.364;9.910;2023-05-20T11:29:27;3.80;;;2.40;;
55732;SDS011;41637;52.364;9.910;2023-05-20T11:31:58;3.90;;;2.10;;
55732;SDS011;41637;52.364;9.910;2023-05-20T11:34:25;2.80;;;1.80;;
55732;SDS011;41637;52.364;9.910;2023-05-20T11:36:58;3.70;;;2.10;;
55732;SDS011;41637;52.364;9.910;2023-05-20T11:39:28;5.80;;;2.60;;
55732;SDS011;41637;52.364;9.910;2023-05-20T11:41:56;4.10;;;2.10;;
55732;SDS011;41637;52.364;9.910;2023-05-20T11:44:23;3.20;;;2.20;;
55732;SDS011;41637;52.364;9.910;2023-05-20T11:46:50;4.30;;;2.30;;
55732;SDS011;41637;52.364;9.910;2023-05-20T11:49:16;4.10;;;2.10;;
55732;SDS011;41637;52.364;9.910;2023-05-20T11:51:43;4.50;;;2.20;;
55732;SDS011;41637;52.364;9.910;2023-05-20T11:54:10;3.30;;;2.20;;
55732;SDS011;41637;52.364;9.910;2023-05-20T11:56:37;3.20;;;2.40;;
55732;SDS011;41637;52.364;9.910;2023-05-20T11:59:07;3.70;;;2.20;;
55732;SDS011;41637;52.364;9.910;2023-05-20T12:01:38;4.00;;;2.40;;
55732;SDS011;41637;52.364;9.910;2023-05-20T12:04:08;3.70;;;2.40;;
55732;SDS011;41637;52.364;9.910;2023-05-20T12:06:39;3.40;;;2.10;;
55732;SDS011;41637;52.364;9.910;2023-05-20T12:09:06;4.90;;;2.40;;
55732;SDS011;41637;52.364;9.910;2023-05-20T12:11:34;3.80;;;2.20;;
55732;SDS011;41637;52.364;9.910;2023-05-20T12:14:03;4.00;;;2.50;;
55732;SDS011;41637;52.364;9.910;2023-05-20T12:16:30;4.00;;;2.60;;
55732;SDS011;41637;52.364;9.910;2023-05-20T12:18:58;4.90;;;2.40;;
55732;SDS011;41637;52.364;9.910;2023-05-20T12:21:25;3.70;;;2.20;;
55732;SDS011;41637;52.364;9.910;2023-05-20T12:23:53;3.70;;;2.40;;
55732;SDS011;41637;52.364;9.910;2023-05-20T12:26:24;5.00;;;2.40;;
55732;SDS011;41637;52.364;9.910;2023-05-20T12:28:52;3.60;;;2.30;;
55732;SDS011;41637;52.364;9.910;2023-05-20T12:31:19;3.60;;;2.00;;
55732;SDS011;41637;52.364;9.910;2023-05-20T12:33:47;3.80;;;1.90;;
55732;SDS011;41637;52.364;9.910;2023-05-20T12:36:13;3.30;;;2.20;;
55732;SDS011;41637;52.364;9.910;2023-05-20T12:38:40;4.90;;;2.50;;
55732;SDS011;41637;52.364;9.910;2023-05-20T12:41:07;5.20;;;2.10;;
55732;SDS011;41637;52.364;9.910;2023-05-20T12:43:34;4.20;;;2.30;;
55732;SDS011;41637;52.364;9.910;2023-05-20T12:46:02;4.50;;;2.60;;
55732;SDS011;41637;52.364;9.910;2023-05-20T12:48:30;3.00;;;2.20;;
55732;SDS011;41637;52.364;9.910;2023-05-20T12:50:57;3.10;;;2.10;;
55732;SDS011;41637;52.364;9.910;2023-05-20T12:53:23;4.10;;;2.50;;
55732;SDS011;41637;52.364;9.910;2023-05-20T12:55:50;4.10;;;2.30;;
55732;SDS011;41637;52.364;9.910;2023-05-20T12:58:17;4.50;;;2.50;;
55732;SDS011;41637;52.364;9.910;2023-05-20T13:00:44;3.90;;;2.50;;
55732;SDS011;41637;52.364;9.910;2023-05-20T13:03:11;3.90;;;2.70;;
55732;SDS011;41637;52.364;9.910;2023-05-20T13:05:38;4.90;;;2.50;;
55732;SDS011;41637;52.364;9.910;2023-05-20T13:08:05;4.50;;;2.70;;
55732;SDS011;41637;52.364;9.910;2023-05-20T13:10:34;5.10;;;2.90;;
55732;SDS011;41637;52.364;9.910;2023-05-20T13:13:01;4.30;;;2.80;;
55732;SDS011;41637;52.364;9.910;2023-05-20T13:15:28;5.00;;;2.20;;
55732;SDS011;41637;52.364;9.910;2023-05-20T13:17:54;3.70;;;2.30;;
55732;SDS011;41637;52.364;9.910;2023-05-20T13:20:21;4.40;;;2.60;;
55732;SDS011;41637;52.364;9.910;2023-05-20T13:22:48;4.30;;;2.40;;
55732;SDS011;41637;52.364;9.910;2023-05-20T13:25:15;4.40;;;2.80;;
55732;SDS011;41637;52.364;9.910;2023-05-20T13:27:42;4.00;;;2.30;;
55732;SDS011;41637;52.364;9.910;2023-05-20T13:30:09;4.40;;;2.60;;
55732;SDS011;41637;52.364;9.910;2023-05-20T13:32:36;4.30;;;2.80;;
55732;SDS011;41637;52.364;9.910;2023-05-20T13:35:03;4.10;;;2.70;;
55732;SDS011;41637;52.364;9.910;2023-05-20T13:37:30;3.60;;;2.30;;
55732;SDS011;41637;52.364;9.910;2023-05-20T13:39:57;3.80;;;2.70;;
55732;SDS011;41637;52.364;9.910;2023-05-20T13:42:23;4.80;;;2.40;;
55732;SDS011;41637;52.364;9.910;2023-05-20T13:44:50;3.80;;;2.50;;
55732;SDS011;41637;52.364;9.910;2023-05-20T13:47:17;4.00;;;2.60;;
55732;SDS011;41637;52.364;9.910;2023-05-20T13:49:44;5.10;;;2.60;;
55732;SDS011;41637;52.364;9.910;2023-05-20T13:52:10;5.30;;;2.20;;
55732;SDS011;41637;52.364;9.910;2023-05-20T13:54:37;4.30;;;2.50;;
55732;SDS011;41637;52.364;9.910;2023-05-20T13:57:05;4.50;;;2.30;;
55732;SDS011;41637;52.364;9.910;2023-05-20T13:59:33;3.00;;;2.10;;
55732;SDS011;41637;52.364;9.910;2023-05-20T14:02:00;3.80;;;2.70;;
55732;SDS011;41637;52.364;9.910;2023-05-20T14:04:27;3.20;;;2.30;;
55732;SDS011;41637;52.364;9.910;2023-05-20T14:06:56;4.50;;;2.60;;
55732;SDS011;41637;52.364;9.910;2023-05-20T14:09:24;4.90;;;2.80;;
55732;SDS011;41637;52.364;9.910;2023-05-20T14:11:51;4.70;;;2.60;;
55732;SDS011;41637;52.364;9.910;2023-05-20T14:14:18;4.50;;;2.60;;
55732;SDS011;41637;52.364;9.910;2023-05-20T14:16:45;3.40;;;2.30;;
55732;SDS011;41637;52.364;9.910;2023-05-20T14:19:12;3.50;;;2.20;;
55732;SDS011;41637;52.364;9.910;2023-05-20T14:21:39;4.20;;;2.40;;
55732;SDS011;41637;52.364;9.910;2023-05-20T14:24:06;4.50;;;2.30;;
55732;SDS011;41637;52.364;9.910;2023-05-20T14:26:33;3.70;;;2.30;;
55732;SDS011;41637;52.364;9.910;2023-05-20T14:29:00;3.80;;;2.30;;
55732;SDS011;41637;52.364;9.910;2023-05-20T14:31:27;3.70;;;2.20;;
55732;SDS011;41637;52.364;9.910;2023-05-20T14:33:54;3.70;;;2.20;;
55732;SDS011;41637;52.364;9.910;2023-05-20T14:36:21;2.70;;;1.90;;
55732;SDS011;41637;52.364;9.910;2023-05-20T14:38:48;3.10;;;2.10;;
55732;SDS011;41637;52.364;9.910;2023-05-20T14:41:15;3.80;;;2.40;;
55732;SDS011;41637;52.364;9.910;2023-05-20T14:43:42;3.50;;;2.40;;
55732;SDS011;41637;52.364;9.910;2023-05-20T14:46:09;4.10;;;2.50;;
55732;SDS011;41637;52.364;9.910;2023-05-20T14:48:36;3.90;;;2.60;;
55732;SDS011;41637;52.364;9.910;2023-05-20T14:51:02;4.30;;;2.70;;
55732;SDS011;41637;52.364;9.910;2023-05-20T14:53:29;4.30;;;2.70;;
55732;SDS011;41637;52.364;9.910;2023-05-20T14:55:56;3.80;;;2.50;;
55732;SDS011;41637;52.364;9.910;2023-05-20T14:58:23;4.30;;;2.50;;
55732;SDS011;41637;52.364;9.910;2023-05-20T15:00:51;4.70;;;2.50;;
55732;SDS011;41637;52.364;9.910;2023-05-20T15:03:18;3.60;;;2.30;;